createdAt,value
2022-09-21T00:02:39.739Z,100.00
2022-09-21T00:12:42.941Z,100.00
2022-09-21T00:22:48.005Z,73.37
2022-09-21T00:27:51.265Z,100.00
2022-09-21T00:32:53.376Z,100.00
2022-09-21T00:37:55.054Z,100.00
2022-09-21T00:43:16.710Z,100.00
2022-09-21T00:53:20.190Z,100.00
2022-09-21T00:58:28.561Z,100.00
2022-09-21T01:03:31.250Z,100.00
2022-09-21T01:08:34.259Z,100.00
2022-09-21T01:14:20.927Z,73.37
2022-09-21T01:19:28.361Z,100.00
2022-09-21T01:25:08.032Z,100.00
2022-09-21T01:30:17.078Z,100.00
2022-09-21T01:35:27.550Z,100.00
2022-09-21T01:40:37.338Z,100.00
2022-09-21T01:45:51.900Z,100.00
2022-09-21T01:50:57.679Z,100.00
2022-09-21T01:56:23.745Z,100.00
2022-09-21T02:01:27.982Z,100.00
2022-09-21T02:06:30.383Z,100.00
2022-09-21T02:11:31.851Z,100.00
2022-09-21T02:16:47.977Z,100.00
2022-09-21T02:22:05.070Z,100.00
2022-09-21T02:27:14.783Z,100.00
2022-09-21T02:32:36.067Z,100.00
2022-09-21T02:37:48.575Z,100.00
2022-09-21T02:42:56.038Z,100.00
2022-09-21T02:48:03.071Z,100.00
2022-09-21T02:53:08.498Z,100.00
2022-09-21T02:58:14.298Z,100.00
2022-09-21T03:03:24.716Z,100.00
2022-09-21T03:08:26.367Z,100.00
2022-09-21T03:13:27.932Z,100.00
2022-09-21T03:18:30.690Z,100.00
2022-09-21T03:23:32.392Z,100.00
2022-09-21T03:28:34.499Z,100.00
2022-09-21T03:33:36.064Z,100.00
2022-09-21T03:38:38.445Z,100.00
2022-09-21T03:43:39.855Z,100.00
2022-09-21T03:48:42.380Z,100.00
2022-09-21T03:53:44.126Z,100.00
2022-09-21T03:58:45.693Z,100.00
2022-09-21T04:03:47.662Z,100.00
2022-09-21T04:08:49.880Z,100.00
2022-09-21T04:13:56.661Z,100.00
2022-09-21T04:18:58.215Z,100.00
2022-09-21T04:24:00.155Z,100.00
2022-09-21T04:29:02.438Z,100.00
2022-09-21T04:34:04.133Z,100.00
2022-09-21T04:39:06.834Z,100.00
2022-09-21T04:44:08.686Z,100.00
2022-09-21T04:49:10.717Z,100.00
2022-09-21T04:54:12.117Z,100.00
2022-09-21T04:59:13.501Z,100.00
2022-09-21T05:04:15.289Z,100.00
2022-09-21T05:09:35.329Z,100.00
2022-09-21T05:14:37.372Z,100.00
2022-09-21T05:19:39.120Z,100.00
2022-09-21T05:24:40.848Z,100.00
2022-09-21T05:29:42.632Z,100.00
2022-09-21T05:34:56.648Z,100.00
2022-09-21T05:39:58.442Z,100.00
2022-09-21T05:45:00.596Z,100.00
2022-09-21T05:50:20.389Z,100.00
2022-09-21T05:55:34.163Z,100.00
2022-09-21T06:00:49.658Z,100.00
2022-09-21T06:05:51.187Z,100.00
2022-09-21T06:10:52.916Z,73.37
2022-09-21T06:15:54.588Z,100.00
2022-09-21T06:20:56.476Z,100.00
2022-09-21T06:25:58.892Z,100.00
2022-09-21T06:31:00.918Z,100.00
2022-09-21T06:36:02.631Z,100.00
2022-09-21T06:41:04.520Z,100.00
2022-09-21T06:46:06.032Z,100.00
2022-09-21T06:56:10.166Z,100.00
2022-09-21T07:01:13.299Z,100.00
2022-09-21T07:06:15.714Z,100.00
2022-09-21T07:11:17.492Z,100.00
2022-09-21T07:16:19.689Z,100.00
2022-09-21T07:21:22.130Z,100.00
2022-09-21T07:26:23.823Z,100.00
2022-09-21T07:31:25.378Z,100.00
2022-09-21T07:36:26.995Z,100.00
2022-09-21T07:41:28.636Z,100.00
2022-09-21T07:46:30.407Z,100.00
2022-09-21T07:51:32.130Z,100.00
2022-09-21T07:56:33.581Z,100.00
2022-09-21T08:01:37.687Z,100.00
2022-09-21T08:06:39.897Z,100.00
2022-09-21T08:11:44.052Z,100.00
2022-09-21T08:16:47.245Z,100.00
2022-09-21T08:21:53.531Z,100.00
2022-09-21T08:26:59.344Z,100.00
2022-09-21T08:32:01.160Z,100.00
2022-09-21T08:37:02.721Z,100.00
2022-09-21T08:42:29.019Z,100.00
2022-09-21T08:47:40.522Z,98.60
2022-09-21T08:52:44.695Z,98.94
2022-09-21T08:57:53.285Z,96.53
2022-09-21T09:03:18.802Z,96.89
2022-09-21T09:08:32.026Z,98.00
2022-09-21T09:14:02.520Z,95.45
2022-09-21T09:19:33.286Z,93.48
2022-09-21T09:24:37.603Z,94.10
2022-09-21T09:29:39.000Z,93.95
2022-09-21T09:34:45.903Z,91.79
2022-09-21T09:39:56.875Z,89.74
2022-09-21T09:45:28.222Z,85.15
2022-09-21T09:50:33.749Z,80.37
2022-09-21T09:55:39.876Z,81.40
2022-09-21T10:00:41.704Z,81.45
2022-09-21T10:05:43.150Z,79.82
2022-09-21T10:10:44.693Z,78.21
2022-09-21T10:16:08.891Z,78.59
2022-09-21T10:21:25.546Z,75.68
2022-09-21T10:26:41.250Z,78.13
2022-09-21T10:32:00.804Z,73.96
2022-09-21T10:37:37.094Z,70.59
2022-09-21T10:42:42.936Z,72.38
2022-09-21T10:47:51.963Z,74.56
2022-09-21T10:52:59.008Z,74.40
2022-09-21T10:58:00.846Z,71.25
2022-09-21T11:03:30.055Z,68.94
2022-09-21T11:08:41.206Z,69.89
2022-09-21T11:14:18.083Z,70.57
2022-09-21T11:19:41.992Z,70.18
2022-09-21T11:24:50.124Z,67.47
2022-09-21T11:30:12.277Z,67.71
2022-09-21T11:35:58.437Z,66.27
2022-09-21T11:41:17.928Z,65.44
2022-09-21T11:46:38.441Z,62.76
2022-09-21T11:52:02.248Z,60.47
2022-09-21T11:57:18.698Z,57.19
2022-09-21T12:02:40.917Z,59.52
2022-09-21T12:07:49.798Z,59.75
2022-09-21T12:13:02.213Z,58.11
2022-09-21T12:18:29.878Z,56.54
2022-09-21T12:23:41.904Z,54.54
2022-09-21T12:28:50.471Z,55.23
2022-09-21T12:33:54.902Z,53.31
2022-09-21T12:39:03.270Z,52.05
2022-09-21T12:44:22.948Z,55.99
2022-09-21T12:49:28.176Z,53.48
2022-09-21T12:54:46.764Z,53.04
2022-09-21T13:00:17.703Z,52.07
2022-09-21T13:05:28.093Z,51.12
2022-09-21T13:10:39.436Z,49.61
2022-09-21T13:15:47.583Z,46.37
2022-09-21T13:20:52.045Z,45.93
2022-09-21T13:26:02.598Z,44.96
2022-09-21T13:31:39.379Z,46.11
2022-09-21T13:36:41.395Z,43.80
2022-09-21T13:42:03.123Z,43.20
2022-09-21T13:47:06.647Z,41.79
2022-09-21T13:52:22.568Z,43.00
2022-09-21T13:57:34.186Z,43.54
2022-09-21T14:02:42.563Z,42.19
2022-09-21T14:07:50.294Z,41.28
2022-09-21T14:12:51.852Z,42.77
2022-09-21T14:18:12.082Z,42.16
2022-09-21T14:23:16.345Z,42.39
2022-09-21T14:28:26.261Z,43.20
2022-09-21T14:33:39.146Z,41.62
2022-09-21T14:38:53.456Z,39.48
2022-09-21T14:43:57.233Z,42.89
2022-09-21T14:49:29.918Z,42.23
2022-09-21T14:54:37.251Z,42.49
2022-09-21T14:59:53.116Z,42.86
2022-09-21T15:05:31.424Z,42.27
2022-09-21T15:11:08.989Z,41.67
2022-09-21T15:16:20.052Z,43.27
2022-09-21T15:21:31.968Z,42.40
2022-09-21T15:26:34.452Z,43.08
2022-09-21T15:31:39.806Z,44.63
2022-09-21T15:36:43.683Z,43.09
2022-09-21T15:41:47.474Z,44.87
2022-09-21T15:47:00.177Z,47.92
2022-09-21T15:52:24.052Z,48.50
2022-09-21T15:57:36.486Z,48.14
2022-09-21T16:02:40.371Z,50.92
2022-09-21T16:07:41.921Z,49.91
2022-09-21T16:12:44.521Z,50.23
2022-09-21T16:18:01.477Z,50.02
2022-09-21T16:23:23.992Z,50.93
2022-09-21T16:28:43.771Z,52.59
2022-09-21T16:33:48.922Z,54.76
2022-09-21T16:38:50.486Z,55.31
2022-09-21T16:43:54.059Z,58.22
2022-09-21T16:48:55.706Z,59.17
2022-09-21T16:53:58.469Z,58.22
2022-09-21T16:59:03.672Z,57.04
2022-09-21T17:04:05.303Z,58.16
2022-09-21T17:09:38.335Z,58.12
2022-09-21T17:14:45.642Z,59.75
2022-09-21T17:19:49.963Z,58.66
2022-09-21T17:24:53.829Z,58.90
2022-09-21T17:29:56.337Z,60.40
2022-09-21T17:35:32.255Z,62.11
2022-09-21T17:40:35.275Z,62.49
2022-09-21T17:45:52.723Z,63.95
2022-09-21T17:50:54.490Z,66.52
2022-09-21T17:56:02.783Z,67.67
2022-09-21T18:01:04.666Z,68.34
2022-09-21T18:06:08.675Z,72.18
2022-09-21T18:11:47.694Z,73.18
2022-09-21T18:17:07.718Z,73.45
2022-09-21T18:22:23.876Z,73.38
2022-09-21T18:27:25.561Z,75.39
2022-09-21T18:32:51.603Z,73.74
2022-09-21T18:38:02.835Z,76.34
2022-09-21T18:43:16.684Z,89.96
2022-09-21T18:48:50.627Z,78.92
2022-09-21T18:53:55.850Z,79.23
2022-09-21T18:59:00.559Z,78.51
2022-09-21T19:04:02.624Z,79.82
2022-09-21T19:09:31.971Z,81.44
2022-09-21T19:14:38.247Z,81.53
2022-09-21T19:19:59.319Z,84.11
2022-09-21T19:25:22.271Z,83.83
2022-09-21T19:30:24.056Z,84.25
2022-09-21T19:35:31.264Z,85.11
2022-09-21T19:40:37.085Z,85.09
2022-09-21T19:46:06.174Z,84.85
2022-09-21T19:51:19.138Z,85.63
2022-09-21T19:56:39.689Z,86.68
2022-09-21T20:01:52.298Z,87.32
2022-09-21T20:06:59.503Z,87.49
2022-09-21T20:12:18.959Z,88.06
2022-09-21T20:17:36.549Z,89.05
2022-09-21T20:22:40.483Z,88.79
2022-09-21T20:27:49.157Z,89.29
2022-09-21T20:32:54.303Z,89.59
2022-09-21T20:38:01.319Z,89.75
2022-09-21T20:43:03.841Z,89.64
2022-09-21T20:48:13.994Z,90.28
2022-09-21T20:53:16.495Z,90.45
2022-09-21T20:58:17.908Z,91.91
2022-09-21T21:03:19.759Z,91.71
2022-09-21T21:08:21.366Z,91.50
2022-09-21T21:13:22.858Z,91.94
2022-09-21T21:18:24.378Z,91.10
2022-09-21T21:23:25.918Z,90.61
2022-09-21T21:28:28.358Z,91.82
2022-09-21T21:33:30.098Z,91.49
2022-09-21T21:38:31.953Z,91.89
2022-09-21T21:43:35.825Z,92.47
2022-09-21T21:48:40.985Z,92.95
2022-09-21T21:53:43.683Z,92.97
2022-09-21T21:58:45.176Z,93.13
2022-09-21T22:03:47.945Z,93.24
2022-09-21T22:08:50.379Z,93.65
2022-09-21T22:13:54.110Z,94.57
2022-09-21T22:18:56.374Z,94.12
2022-09-21T22:24:00.508Z,93.44
2022-09-21T22:29:03.747Z,94.49
2022-09-21T22:34:05.787Z,93.84
2022-09-21T22:39:08.395Z,93.81
2022-09-21T22:44:10.994Z,94.64
2022-09-21T22:49:12.405Z,94.52
2022-09-21T22:54:14.107Z,94.61
2022-09-21T22:59:15.493Z,94.52
2022-09-21T23:04:17.285Z,94.37
2022-09-21T23:09:20.787Z,94.17
2022-09-21T23:14:22.965Z,93.57
2022-09-21T23:19:24.526Z,93.89
2022-09-21T23:24:26.010Z,94.27
2022-09-21T23:29:27.506Z,93.78
2022-09-21T23:34:29.130Z,93.69
2022-09-21T23:39:30.545Z,93.26
2022-09-21T23:44:32.115Z,93.01
2022-09-21T23:49:33.509Z,92.84
2022-09-21T23:54:35.015Z,94.32
2022-09-21T23:59:36.492Z,95.16
